Time;durP1;ratioP1;P1;durP2;ratioP2;P2;SDS_P1;SDS_P2;PMS_P1;PMS_P2;Temp;Humidity;BMP_temperature;BMP_pressure;BME280_temperature;BME280_humidity;BME280_pressure;Samples;Min_cycle;Max_cycle;Signal;HPM_P1;HPM_P2
2021/12/10 00:01:56;;;;;;;3.40;1.83;;;;;;;20.32;33.39;98134.56;5103477;28;20416;-51
2021/12/10 00:04:29;;;;;;;3.13;1.80;;;;;;;20.31;33.30;98121.88;5131867;28;20085;-51
2021/12/10 00:06:59;;;;;;;2.72;1.55;;;;;;;20.30;33.43;98113.97;5131383;28;20054;-50
2021/12/10 00:09:29;;;;;;;3.50;2.13;;;;;;;20.32;33.37;98114.34;5132018;28;20046;-49
2021/12/10 00:12:06;;;;;;;3.05;1.83;;;;;;;20.32;33.42;98103.25;5131862;28;20039;-49
2021/12/10 00:14:34;;;;;;;2.75;1.80;;;;;;;20.33;33.23;98104.81;5132014;28;20096;-50
2021/12/10 00:17:03;;;;;;;2.97;1.77;;;;;;;20.32;33.21;98101.25;5131688;28;20521;-48
2021/12/10 00:19:35;;;;;;;3.50;2.17;;;;;;;20.37;33.16;98102.03;5131690;28;20046;-49
2021/12/10 00:22:08;;;;;;;3.90;2.30;;;;;;;20.38;33.18;98098.84;5114459;28;20047;-48
2021/12/10 00:24:34;;;;;;;3.28;1.98;;;;;;;20.38;32.97;98090.53;5131717;28;20039;-49
2021/12/10 00:27:04;;;;;;;3.22;1.90;;;;;;;20.37;33.14;98093.72;5131428;28;20039;-52
2021/12/10 00:29:29;;;;;;;3.35;2.28;;;;;;;20.37;33.13;98090.94;5131519;28;20392;-50
2021/12/10 00:32:02;;;;;;;2.90;1.83;;;;;;;20.37;33.12;98080.63;5131750;28;20629;-50
2021/12/10 00:34:33;;;;;;;3.05;1.88;;;;;;;20.37;33.21;98066.72;5131395;28;20039;-50
2021/12/10 00:37:04;;;;;;;3.15;2.10;;;;;;;20.38;33.06;98067.53;5131526;28;20542;-51
2021/12/10 00:39:35;;;;;;;2.83;1.92;;;;;;;20.35;33.15;98058.00;5131530;28;20043;-51
2021/12/10 00:42:03;;;;;;;3.03;1.70;;;;;;;20.35;33.06;98058.78;5131339;28;20055;-53
2021/12/10 00:44:29;;;;;;;3.47;2.28;;;;;;;20.35;33.17;98058.78;5131266;28;20100;-53
2021/12/10 00:46:55;;;;;;;3.72;1.92;;;;;;;20.33;33.19;98047.28;5131282;28;20131;-51
2021/12/10 00:49:21;;;;;;;2.95;1.70;;;;;;;20.31;33.01;98033.03;5131292;28;20451;-50
2021/12/10 00:51:46;;;;;;;2.90;1.80;;;;;;;20.33;33.08;98036.19;5130573;28;20454;-48
2021/12/10 00:54:12;;;;;;;2.95;1.67;;;;;;;20.33;32.98;98013.19;5131097;28;20066;-49
2021/12/10 00:56:41;;;;;;;2.90;1.90;;;;;;;20.37;33.07;98013.19;5131159;28;20419;-50
2021/12/10 00:59:09;;;;;;;3.00;1.70;;;;;;;20.37;33.10;98004.84;5131333;28;20042;-50
2021/12/10 01:01:35;;;;;;;4.13;2.13;;;;;;;20.35;32.97;97999.69;5130953;28;20070;-49
2021/12/10 01:04:10;;;;;;;3.50;1.95;;;;;;;20.36;33.00;97995.72;5130153;28;20086;-50
2021/12/10 01:06:37;;;;;;;2.80;1.67;;;;;;;20.36;32.89;97984.63;5131248;28;20486;-50
2021/12/10 01:09:11;;;;;;;3.45;2.10;;;;;;;20.35;32.83;97977.47;5094570;28;20079;-50
2021/12/10 01:11:50;;;;;;;3.38;1.80;;;;;;;20.33;33.01;97968.75;5129818;27;20104;-48
2021/12/10 01:14:35;;;;;;;2.38;1.50;;;;;;;20.35;32.83;97966.34;5131032;28;20157;-49
2021/12/10 01:28:01;;;;;;;2.58;1.42;;;;;;;20.27;33.04;97921.19;5130708;28;20050;-49
2021/12/10 01:30:35;;;;;;;2.53;1.48;;;;;;;20.27;32.97;97918.41;5130678;28;20399;-51
2021/12/10 01:33:11;;;;;;;2.65;1.63;;;;;;;20.26;33.02;97908.50;5130537;28;20050;-51
2021/12/10 01:35:41;;;;;;;2.38;1.40;;;;;;;20.25;32.93;97898.59;5130680;28;20075;-50
2021/12/10 01:38:08;;;;;;;2.72;1.60;;;;;;;20.24;32.98;97882.34;5130546;28;20127;-51
2021/12/10 01:40:36;;;;;;;2.63;1.65;;;;;;;20.22;33.05;97866.13;5130389;28;20043;-50
2021/12/10 01:43:11;;;;;;;3.17;1.88;;;;;;;20.22;33.10;97865.31;5130446;28;20530;-49
2021/12/10 01:45:47;;;;;;;2.75;1.80;;;;;;;20.24;33.08;97857.38;5130300;28;20131;-52
2021/12/10 01:48:21;;;;;;;3.08;1.80;;;;;;;20.23;33.08;97856.59;5130508;28;20042;-49
2021/12/10 01:50:48;;;;;;;2.90;1.73;;;;;;;20.22;33.01;97852.22;5129726;28;20043;-49
2021/12/10 01:53:17;;;;;;;2.78;1.60;;;;;;;20.23;33.00;97855.81;5130434;28;20047;-48
2021/12/10 01:55:45;;;;;;;3.00;1.70;;;;;;;20.22;32.90;97852.22;5130337;28;20048;-49
2021/12/10 01:58:14;;;;;;;3.58;1.92;;;;;;;20.22;33.06;97835.56;5130255;28;20130;-50
2021/12/10 02:00:45;;;;;;;3.35;1.80;;;;;;;20.22;32.90;97818.13;5130358;28;20049;-48
2021/12/10 02:03:12;;;;;;;3.22;2.10;;;;;;;20.22;33.07;97809.81;5130230;28;20054;-48
2021/12/10 02:05:37;;;;;;;2.50;1.65;;;;;;;20.22;33.01;97802.25;5130082;28;20119;-49
2021/12/10 02:08:04;;;;;;;3.25;1.80;;;;;;;20.19;32.89;97800.28;5130323;28;20072;-49
2021/12/10 02:10:30;;;;;;;3.38;1.90;;;;;;;20.22;32.73;97795.94;5130172;28;20138;-48
2021/12/10 02:12:57;;;;;;;2.85;1.58;;;;;;;20.21;32.71;97792.31;5128841;27;20518;-51
2021/12/10 02:15:26;;;;;;;2.90;1.60;;;;;;;20.20;32.33;97784.41;5129529;27;20453;-48
2021/12/10 02:17:53;;;;;;;2.45;1.50;;;;;;;20.19;32.25;97791.97;5130114;27;20180;-48
2021/12/10 02:20:32;;;;;;;2.40;1.50;;;;;;;20.16;32.31;97806.66;5130254;27;20035;-49
2021/12/10 02:22:59;;;;;;;3.08;1.75;;;;;;;20.18;32.13;97811.81;5130544;27;20047;-47
2021/12/10 02:25:28;;;;;;;3.60;2.00;;;;;;;20.18;32.18;97812.59;5133588;27;20628;-48
2021/12/10 02:27:54;;;;;;;2.60;1.60;;;;;;;20.20;32.20;97818.53;5133476;27;20051;-52
2021/12/10 02:30:22;;;;;;;2.95;1.60;;;;;;;20.20;32.09;97820.50;5133685;27;20043;-49
2021/12/10 02:32:48;;;;;;;2.78;1.52;;;;;;;20.19;32.05;97830.81;5133622;27;20511;-49
2021/12/10 02:35:15;;;;;;;2.65;1.60;;;;;;;20.17;32.20;97838.78;5133711;27;20047;-49
2021/12/10 02:37:43;;;;;;;2.90;1.70;;;;;;;20.20;32.18;97856.59;5133532;27;20039;-49
2021/12/10 02:40:12;;;;;;;3.13;1.52;;;;;;;20.17;32.22;97861.00;5132058;28;20497;-48
2021/12/10 02:42:39;;;;;;;2.15;1.23;;;;;;;20.16;32.21;97862.19;5133499;27;20088;-51
2021/12/10 02:45:07;;;;;;;2.90;1.45;;;;;;;20.13;32.25;97860.22;5133513;28;20047;-48
2021/12/10 02:47:33;;;;;;;2.38;1.30;;;;;;;20.15;32.40;97868.94;5133483;27;20074;-48
2021/12/10 02:49:59;;;;;;;2.45;1.50;;;;;;;20.14;32.38;97872.09;5133324;27;20066;-48
2021/12/10 02:52:26;;;;;;;2.30;1.40;;;;;;;20.14;32.35;97872.88;5132651;27;20067;-48
2021/12/10 02:54:52;;;;;;;2.17;1.30;;;;;;;20.12;32.47;97875.28;5133231;27;20130;-49
2021/12/10 02:57:18;;;;;;;2.28;1.38;;;;;;;20.10;32.49;97876.91;5132868;28;20134;-48
2021/12/10 02:59:45;;;;;;;2.55;1.55;;;;;;;20.09;32.42;97881.66;5133054;27;20395;-49
2021/12/10 03:02:17;;;;;;;2.40;1.40;;;;;;;20.10;32.49;97894.34;5133038;27;20061;-48
2021/12/10 03:04:44;;;;;;;2.55;1.42;;;;;;;20.11;32.38;97900.69;5133120;27;20046;-48
2021/12/10 03:07:14;;;;;;;3.13;1.77;;;;;;;20.12;32.34;97905.81;5133024;27;20043;-49
2021/12/10 03:09:44;;;;;;;2.97;1.67;;;;;;;20.10;32.52;97886.03;5133171;27;20337;-49
2021/12/10 03:12:12;;;;;;;2.72;1.70;;;;;;;20.12;32.51;97889.16;5129890;28;20035;-50
2021/12/10 03:14:40;;;;;;;2.47;1.50;;;;;;;20.12;32.62;97875.28;5133090;27;20126;-49
2021/12/10 03:17:12;;;;;;;3.10;1.70;;;;;;;20.12;32.56;97874.50;5132691;27;20043;-48
2021/12/10 03:19:38;;;;;;;2.47;1.60;;;;;;;20.12;32.45;97874.50;5132802;27;20043;-50
2021/12/10 03:22:06;;;;;;;2.58;1.55;;;;;;;20.11;32.55;97882.03;5131321;28;20652;-49
2021/12/10 03:24:33;;;;;;;2.63;1.60;;;;;;;20.10;32.52;97883.25;5132865;27;20050;-48
2021/12/10 03:27:03;;;;;;;2.63;1.63;;;;;;;20.11;32.60;97873.72;5132703;27;20069;-48
2021/12/10 03:29:30;;;;;;;2.30;1.50;;;;;;;20.11;32.60;97873.72;5131269;28;20524;-50
2021/12/10 03:31:59;;;;;;;2.85;1.52;;;;;;;20.11;32.60;97870.94;5132639;27;20039;-48
2021/12/10 03:34:24;;;;;;;2.55;1.60;;;;;;;20.11;32.68;97873.72;5131901;27;20050;-49
2021/12/10 03:36:52;;;;;;;2.58;1.80;;;;;;;20.13;32.59;97845.53;5132552;27;20043;-50
2021/12/10 03:39:22;;;;;;;2.38;1.50;;;;;;;20.11;32.63;97854.28;5132513;27;20495;-48
2021/12/10 03:41:48;;;;;;;2.70;1.45;;;;;;;20.10;32.57;97852.72;5132361;27;20399;-48
2021/12/10 03:44:15;;;;;;;2.80;1.63;;;;;;;20.11;32.62;97842.41;5132338;27;20043;-50
2021/12/10 03:46:41;;;;;;;3.15;1.48;;;;;;;20.11;32.54;97840.41;5132443;27;20047;-50
2021/12/10 03:49:08;;;;;;;2.38;1.50;;;;;;;20.10;32.50;97813.06;5132212;27;20572;-50
2021/12/10 03:51:35;;;;;;;2.50;1.50;;;;;;;20.07;32.53;97817.44;5130907;27;20073;-48
2021/12/10 03:54:02;;;;;;;2.97;1.40;;;;;;;20.04;32.52;97819.03;5132173;27;20043;-48
2021/12/10 03:56:30;;;;;;;2.35;1.27;;;;;;;20.04;32.62;97823.81;5132164;27;20419;-50
2021/12/10 03:58:59;;;;;;;1.85;1.10;;;;;;;20.06;32.79;97824.19;5152090;27;20067;-49
2021/12/10 04:01:29;;;;;;;2.35;1.30;;;;;;;20.06;32.70;97832.50;5152961;27;20059;-51
2021/12/10 04:03:56;;;;;;;1.77;1.13;;;;;;;20.08;32.63;97823.78;5152713;27;20045;-48
2021/12/10 04:06:22;;;;;;;2.13;1.13;;;;;;;20.07;32.59;97817.44;5152683;27;20054;-48
2021/12/10 04:08:49;;;;;;;2.10;1.25;;;;;;;20.09;32.81;97803.16;5152752;27;20493;-49
2021/12/10 04:11:16;;;;;;;1.90;1.13;;;;;;;20.09;32.87;97792.84;5152511;27;20176;-48
2021/12/10 04:13:46;;;;;;;1.35;0.85;;;;;;;20.09;32.81;97789.28;5152611;27;20510;-49
2021/12/10 04:16:12;;;;;;;1.40;0.90;;;;;;;20.09;32.95;97776.19;5152807;27;20050;-48
2021/12/10 04:18:37;;;;;;;1.25;0.75;;;;;;;20.08;32.98;97771.84;5152719;27;20045;-48
2021/12/10 04:21:06;;;;;;;1.30;0.80;;;;;;;20.08;33.06;97755.19;5152501;27;20088;-48
2021/12/10 04:23:31;;;;;;;1.83;0.77;;;;;;;20.08;33.06;97738.53;5149017;27;20043;-48
2021/12/10 04:25:57;;;;;;;1.20;0.70;;;;;;;20.07;33.08;97745.28;5152301;27;20147;-49
2021/12/10 04:28:23;;;;;;;1.45;0.90;;;;;;;20.09;33.05;97731.00;5152662;27;20066;-54
2021/12/10 04:30:51;;;;;;;1.30;0.70;;;;;;;20.09;33.04;97731.78;5152275;27;20042;-52
2021/12/10 04:33:22;;;;;;;1.33;0.70;;;;;;;20.07;33.07;97711.97;5152276;27;20043;-52
2021/12/10 04:35:49;;;;;;;1.10;0.60;;;;;;;20.09;33.09;97703.25;5152361;27;20045;-48
2021/12/10 04:38:16;;;;;;;1.10;0.50;;;;;;;20.08;33.18;97691.38;5152351;27;20034;-49
2021/12/10 04:40:47;;;;;;;1.05;0.63;;;;;;;20.06;33.14;97683.41;5152219;27;20523;-49
2021/12/10 04:43:13;;;;;;;1.02;0.70;;;;;;;20.08;33.18;97665.59;5152072;27;20090;-48
2021/12/10 04:45:39;;;;;;;0.80;0.50;;;;;;;20.08;33.16;97658.06;5151748;27;20058;-48
2021/12/10 04:48:04;;;;;;;0.70;0.50;;;;;;;20.09;33.04;97648.53;5152323;27;20034;-48
2021/12/10 04:50:30;;;;;;;0.88;0.50;;;;;;;20.03;33.44;97628.75;5151553;27;20087;-48
2021/12/10 04:52:57;;;;;;;0.73;0.57;;;;;;;20.08;33.34;97629.50;5131943;27;20126;-49
2021/12/10 04:55:23;;;;;;;0.73;0.50;;;;;;;20.06;33.34;97611.25;5131142;28;20046;-48
2021/12/10 04:57:49;;;;;;;0.52;0.40;;;;;;;20.08;33.26;97608.09;5131276;28;20035;-49
2021/12/10 05:00:21;;;;;;;0.57;0.50;;;;;;;20.10;33.32;97610.44;5131107;28;20035;-48
2021/12/10 05:02:47;;;;;;;0.68;0.50;;;;;;;20.09;33.38;97609.66;5131350;28;20050;-49
2021/12/10 05:05:13;;;;;;;0.68;0.50;;;;;;;20.09;33.20;97601.34;5131334;28;20042;-49
2021/12/10 05:07:39;;;;;;;0.30;0.30;;;;;;;20.10;33.30;97604.91;5131050;28;20071;-49
2021/12/10 05:10:07;;;;;;;0.45;0.40;;;;;;;20.08;33.21;97597.00;5131078;28;20119;-49
2021/12/10 05:12:33;;;;;;;0.20;0.20;;;;;;;20.11;33.46;97587.03;5131179;28;20031;-52
2021/12/10 05:15:00;;;;;;;0.57;0.40;;;;;;;20.11;33.38;97567.63;5131227;28;20118;-49
2021/12/10 05:17:31;;;;;;;0.50;0.40;;;;;;;20.13;33.44;97563.22;5130897;28;20096;-50
2021/12/10 05:19:59;;;;;;;0.55;0.40;;;;;;;20.12;33.37;97558.09;5130870;28;20063;-49
2021/12/10 05:22:26;;;;;;;0.70;0.40;;;;;;;20.13;33.30;97554.88;5130950;28;20043;-53
2021/12/10 05:24:52;;;;;;;0.43;0.30;;;;;;;20.14;33.58;97564.00;5130835;28;20146;-52
2021/12/10 05:27:17;;;;;;;0.85;0.52;;;;;;;20.13;33.55;97560.44;5130851;28;20122;-53
2021/12/10 05:29:43;;;;;;;0.32;0.20;;;;;;;20.17;33.52;97565.97;5130816;28;20441;-50
2021/12/10 05:32:09;;;;;;;0.20;0.20;;;;;;;20.17;33.60;97552.88;5128663;28;20060;-49
2021/12/10 05:34:36;;;;;;;0.65;0.40;;;;;;;20.15;33.50;97555.28;5130834;28;20436;-50
2021/12/10 05:37:02;;;;;;;0.47;0.30;;;;;;;20.16;33.69;97567.16;5130747;28;20039;-49
2021/12/10 05:39:28;;;;;;;0.25;0.20;;;;;;;20.13;33.56;97557.66;5130805;28;20046;-49
2021/12/10 05:41:55;;;;;;;0.20;0.20;;;;;;;20.15;33.69;97563.59;5130575;28;20051;-51
2021/12/10 05:44:21;;;;;;;0.45;0.20;;;;;;;20.16;33.81;97562.41;5130490;28;20423;-51
2021/12/10 05:46:46;;;;;;;0.20;0.20;;;;;;;20.15;33.61;97555.28;5130595;28;20623;-48
2021/12/10 05:49:12;;;;;;;0.30;0.30;;;;;;;20.16;33.78;97570.72;5130303;28;20043;-50
2021/12/10 05:51:38;;;;;;;0.45;0.25;;;;;;;20.19;33.98;97572.66;5128797;28;20035;-50
2021/12/10 05:54:04;;;;;;;0.20;0.20;;;;;;;20.20;33.77;97565.91;5130528;28;20035;-50
2021/12/10 05:56:30;;;;;;;0.20;0.20;;;;;;;20.17;33.82;97561.19;5130675;28;20067;-50
2021/12/10 05:58:56;;;;;;;0.20;0.20;;;;;;;20.18;33.89;97576.63;5129720;27;20100;-52
2021/12/10 06:01:22;;;;;;;0.20;0.20;;;;;;;20.20;33.89;97559.56;5130545;28;20452;-49
2021/12/10 06:03:54;;;;;;;0.20;0.20;;;;;;;20.19;34.11;97567.09;5130371;28;20043;-51
2021/12/10 06:06:26;;;;;;;0.13;0.10;;;;;;;20.22;33.71;97563.53;5130537;28;20108;-52
2021/12/10 06:08:55;;;;;;;0.20;0.20;;;;;;;20.23;33.86;97564.31;5130309;28;20518;-53
2021/12/10 06:11:22;;;;;;;0.20;0.20;;;;;;;20.24;33.69;97571.44;5130164;28;20043;-48
2021/12/10 06:13:47;;;;;;;0.20;0.20;;;;;;;20.26;33.67;97574.56;5130341;28;20499;-47
2021/12/10 06:16:13;;;;;;;0.20;0.20;;;;;;;20.27;33.62;97571.38;5130251;28;20065;-48
2021/12/10 06:18:39;;;;;;;0.20;0.20;;;;;;;20.30;33.67;97567.00;5130098;28;20046;-48
2021/12/10 06:21:05;;;;;;;0.10;0.10;;;;;;;20.28;33.62;97561.81;5129977;28;20126;-51
2021/12/10 06:23:31;;;;;;;0.32;0.10;;;;;;;20.29;33.78;97546.00;5130025;28;20051;-47
2021/12/10 06:25:57;;;;;;;0.55;0.20;;;;;;;20.30;33.76;97533.66;5129727;28;20059;-48
2021/12/10 06:28:22;;;;;;;0.32;0.22;;;;;;;20.26;33.75;97519.03;5130182;28;20047;-52
2021/12/10 06:30:50;;;;;;;0.10;0.10;;;;;;;20.28;33.67;97511.06;5130035;28;20239;-49
2021/12/10 06:33:21;;;;;;;0.13;0.10;;;;;;;20.28;33.70;97506.31;5111504;28;20524;-48
2021/12/10 06:35:49;;;;;;;0.13;0.13;;;;;;;20.29;33.76;97507.91;5130013;28;20054;-48
2021/12/10 06:38:17;;;;;;;0.10;0.10;;;;;;;20.31;33.78;97526.91;5129798;28;20100;-48
2021/12/10 06:40:43;;;;;;;0.30;0.20;;;;;;;20.29;33.93;97501.56;5129892;28;20430;-48
2021/12/10 06:43:10;;;;;;;9.90;0.50;;;;;;;20.32;33.83;97509.03;5129861;28;20421;-48
2021/12/10 06:45:36;;;;;;;1.23;0.30;;;;;;;20.33;33.71;97503.06;5129754;28;20047;-49
2021/12/10 06:48:05;;;;;;;5.63;0.30;;;;;;;20.33;33.77;97500.28;5129603;28;20047;-48
2021/12/10 06:50:35;;;;;;;4.20;0.30;;;;;;;20.29;33.63;97496.00;5123530;28;20046;-49
2021/12/10 06:53:01;;;;;;;2.85;0.38;;;;;;;20.32;33.64;97507.06;5109015;28;20083;-48
2021/12/10 06:55:28;;;;;;;1.63;0.20;;;;;;;20.31;33.60;97521.34;5109151;28;20048;-48
2021/12/10 06:57:54;;;;;;;3.78;0.30;;;;;;;20.29;33.83;97513.47;5109103;28;20048;-49
2021/12/10 07:00:26;;;;;;;1.40;0.20;;;;;;;20.28;33.69;97506.31;5109194;28;20411;-50
2021/12/10 07:02:51;;;;;;;1.38;0.30;;;;;;;20.28;33.88;97522.97;5109127;28;20127;-51
2021/12/10 07:05:17;;;;;;;1.00;0.25;;;;;;;20.30;33.82;97526.13;5109054;28;20161;-48
2021/12/10 07:07:44;;;;;;;1.13;0.22;;;;;;;20.29;33.82;97532.88;5108961;28;20051;-48
2021/12/10 07:10:12;;;;;;;1.23;0.20;;;;;;;20.28;33.81;97539.63;5109862;28;20047;-48
2021/12/10 07:12:39;;;;;;;0.45;0.20;;;;;;;20.27;33.71;97529.72;5112399;28;20044;-48
2021/12/10 07:15:09;;;;;;;1.75;0.22;;;;;;;20.27;33.71;97540.81;5112212;28;20055;-48
2021/12/10 07:17:37;;;;;;;0.60;0.20;;;;;;;20.26;33.84;97547.59;5112095;28;20055;-51
2021/12/10 07:20:04;;;;;;;0.30;0.20;;;;;;;20.29;33.81;97555.09;5112303;28;20074;-49
2021/12/10 07:22:29;;;;;;;0.75;0.25;;;;;;;20.29;33.86;97554.31;5112406;28;20403;-49
2021/12/10 07:24:54;;;;;;;0.85;0.10;;;;;;;20.28;33.84;97558.28;5111925;28;20496;-49
2021/12/10 07:27:20;;;;;;;0.20;0.10;;;;;;;20.30;33.83;97559.44;5112092;28;20443;-47
2021/12/10 07:29:47;;;;;;;0.38;0.25;;;;;;;20.32;33.95;97561.81;5112114;28;20071;-49
2021/12/10 07:32:14;;;;;;;0.20;0.20;;;;;;;20.31;33.77;97555.47;5112069;28;20039;-51
2021/12/10 07:34:40;;;;;;;0.65;0.22;;;;;;;20.34;33.79;97559.38;5112096;28;20530;-48
2021/12/10 07:37:07;;;;;;;0.25;0.17;;;;;;;20.33;33.97;97566.16;5112028;28;20039;-49
2021/12/10 07:39:33;;;;;;;0.30;0.20;;;;;;;20.32;33.81;97573.69;5111997;28;20632;-49
2021/12/10 07:42:00;;;;;;;0.22;0.20;;;;;;;20.35;33.77;97574.84;5111959;28;20054;-48
2021/12/10 07:44:26;;;;;;;0.25;0.20;;;;;;;20.35;33.74;97578.41;5111342;28;20047;-49
2021/12/10 07:46:51;;;;;;;0.10;0.10;;;;;;;20.35;33.50;97583.94;5128473;28;20040;-48
2021/12/10 07:49:23;;;;;;;0.55;0.17;;;;;;;20.38;33.66;97589.91;5125359;28;20122;-49
2021/12/10 07:51:50;;;;;;;0.20;0.20;;;;;;;20.37;33.77;97588.31;5131383;28;20450;-50
2021/12/10 07:54:17;;;;;;;0.25;0.22;;;;;;;20.35;33.66;97589.50;5112122;28;20180;-49
2021/12/10 07:56:43;;;;;;;0.20;0.20;;;;;;;20.35;33.69;97591.50;5119104;28;20046;-49
2021/12/10 07:59:08;;;;;;;0.17;0.17;;;;;;;20.35;33.63;97594.28;5122814;28;20039;-48
2021/12/10 08:01:34;;;;;;;0.45;0.20;;;;;;;20.38;33.56;97592.69;5116562;28;20590;-48
2021/12/10 08:04:01;;;;;;;0.20;0.20;;;;;;;20.42;33.46;97598.94;5130596;28;20514;-50
2021/12/10 08:06:29;;;;;;;0.95;0.30;;;;;;;20.47;33.58;97606.88;5131184;28;20458;-49
2021/12/10 08:08:55;;;;;;;0.63;0.30;;;;;;;20.51;33.44;97613.16;5131808;28;20399;-49
2021/12/10 08:11:22;;;;;;;0.43;0.20;;;;;;;20.55;33.43;97625.00;5119147;27;20106;-50
2021/12/10 08:13:49;;;;;;;0.80;0.30;;;;;;;20.55;33.37;97623.00;5126942;27;20047;-48
2021/12/10 08:16:15;;;;;;;0.63;0.40;;;;;;;20.56;33.39;97623.81;5109733;27;20150;-51
2021/12/10 08:18:41;;;;;;;0.47;0.30;;;;;;;20.57;33.39;97631.75;5108309;27;20089;-49
2021/12/10 08:21:07;;;;;;;0.88;0.40;;;;;;;20.54;33.46;97626.22;5106828;27;20051;-47
2021/12/10 08:23:36;;;;;;;0.63;0.30;;;;;;;20.55;33.55;97630.56;5110645;28;20052;-47
2021/12/10 08:26:03;;;;;;;0.30;0.30;;;;;;;20.56;33.64;97638.47;5111256;28;20506;-47
2021/12/10 08:28:29;;;;;;;0.50;0.30;;;;;;;20.59;33.71;97639.66;5123423;28;20075;-46
2021/12/10 08:30:55;;;;;;;1.40;0.30;;;;;;;20.60;33.62;97649.56;5109476;28;20463;-47
2021/12/10 08:33:22;;;;;;;0.20;0.20;;;;;;;20.59;33.55;97650.75;5082980;28;20046;-50
2021/12/10 08:35:52;;;;;;;0.35;0.30;;;;;;;20.60;33.61;97649.56;5109456;28;20538;-47
2021/12/10 08:38:19;;;;;;;0.20;0.20;;;;;;;20.62;33.61;97649.91;5114182;28;20112;-52
2021/12/10 08:40:51;;;;;;;0.30;0.30;;;;;;;20.59;33.62;97659.09;5121195;28;20453;-52
2021/12/10 08:43:17;;;;;;;0.68;0.20;;;;;;;20.61;33.60;97657.47;5121829;28;20039;-52
2021/12/10 08:45:44;;;;;;;0.35;0.28;;;;;;;20.65;33.75;97670.53;5112852;28;20074;-52
2021/12/10 08:48:10;;;;;;;0.40;0.20;;;;;;;20.65;33.63;97685.22;5111378;28;20067;-50
2021/12/10 08:50:38;;;;;;;0.35;0.22;;;;;;;20.67;33.66;97673.69;5109626;27;20396;-49
2021/12/10 08:53:08;;;;;;;0.32;0.25;;;;;;;20.66;33.88;97686.78;5108905;27;20035;-46
2021/12/10 08:55:35;;;;;;;0.20;0.20;;;;;;;20.60;33.97;97680.88;5121008;27;20385;-50
2021/12/10 08:58:01;;;;;;;1.85;0.30;;;;;;;21.17;33.42;97688.47;5116604;27;20044;-48
2021/12/10 09:00:27;;;;;;;0.43;0.20;;;;;;;22.27;31.82;97695.50;5121568;28;20189;-48
2021/12/10 09:02:55;;;;;;;1.08;0.20;;;;;;;23.48;30.39;97691.00;5118092;28;20142;-51
2021/12/10 09:05:21;;;;;;;1.83;0.40;;;;;;;24.44;28.92;97696.22;5119487;28;20047;-49
2021/12/10 09:07:46;;;;;;;1.08;0.40;;;;;;;25.09;27.96;97712.75;5120769;28;20432;-52
2021/12/10 09:10:17;;;;;;;0.30;0.30;;;;;;;25.11;27.99;97701.13;5118208;28;20077;-55
2021/12/10 09:12:42;;;;;;;0.20;0.20;;;;;;;24.02;29.62;97693.28;5116436;27;20593;-53
2021/12/10 09:15:16;;;;;;;4.57;0.40;;;;;;;23.19;30.83;97704.81;5122774;28;20082;-52
2021/12/10 09:17:42;;;;;;;2.17;0.50;;;;;;;22.60;31.75;97721.56;5122689;28;20043;-53
2021/12/10 09:20:19;;;;;;;0.77;0.45;;;;;;;22.15;32.49;97722.78;5118969;28;20039;-56
2021/12/10 09:22:45;;;;;;;0.88;0.40;;;;;;;21.86;33.03;97718.84;5111470;28;20588;-57
2021/12/10 09:25:12;;;;;;;0.60;0.50;;;;;;;21.59;33.89;97730.81;5115344;28;20047;-56
2021/12/10 09:27:38;;;;;;;0.98;0.40;;;;;;;21.46;34.28;97729.03;5112821;28;20051;-50
2021/12/10 09:30:07;;;;;;;0.50;0.40;;;;;;;21.31;34.29;97726.47;5107666;28;20043;-52
2021/12/10 09:32:33;;;;;;;1.15;0.50;;;;;;;21.14;34.56;97710.75;5118627;28;20145;-48
2021/12/10 09:35:03;;;;;;;0.68;0.50;;;;;;;21.02;34.97;97714.13;5122299;28;20059;-49
2021/12/10 09:37:29;;;;;;;1.25;0.50;;;;;;;20.93;35.24;97719.38;5118881;28;20073;-49
2021/12/10 09:39:55;;;;;;;0.70;0.40;;;;;;;20.85;35.65;97719.47;5109604;28;20048;-49
2021/12/10 09:42:22;;;;;;;0.85;0.60;;;;;;;20.82;35.73;97723.09;5129885;27;20122;-52
2021/12/10 09:44:51;;;;;;;0.70;0.50;;;;;;;20.81;35.67;97735.41;5107526;28;20052;-50
2021/12/10 09:47:17;;;;;;;1.50;0.70;;;;;;;20.77;35.69;97731.09;5117106;28;20099;-49
2021/12/10 09:49:51;;;;;;;2.60;1.27;;;;;;;20.73;35.55;97725.59;5114051;28;20058;-47
2021/12/10 09:52:20;;;;;;;2.88;1.60;;;;;;;20.68;35.74;97728.81;5116557;27;20073;-47
2021/12/10 09:54:47;;;;;;;2.92;1.50;;;;;;;20.66;35.70;97725.69;5119800;28;20047;-49
2021/12/10 09:57:18;;;;;;;4.80;2.22;;;;;;;20.72;35.19;97726.81;5118348;28;20047;-47
2021/12/10 09:59:47;;;;;;;4.88;3.03;;;;;;;20.79;34.96;97723.16;5115143;28;20039;-47
2021/12/10 10:02:13;;;;;;;5.55;3.67;;;;;;;20.81;34.85;97724.31;5109194;28;20467;-47
2021/12/10 10:04:48;;;;;;;6.40;3.85;;;;;;;20.82;34.61;97716.75;5107073;27;20086;-50
2021/12/10 10:07:22;;;;;;;6.07;3.50;;;;;;;20.81;34.63;97720.75;5120582;28;20075;-47
2021/12/10 10:09:51;;;;;;;5.00;3.10;;;;;;;20.80;34.65;97713.59;5115606;28;20031;-46
2021/12/10 10:12:25;;;;;;;9.20;3.40;;;;;;;20.76;34.79;97715.63;5116216;28;20028;-47
2021/12/10 10:14:52;;;;;;;4.80;3.08;;;;;;;20.73;34.75;97714.47;5094403;28;20490;-53
2021/12/10 10:17:18;;;;;;;5.47;2.38;;;;;;;20.70;34.95;97718.06;5112628;27;20075;-50
2021/12/10 10:19:44;;;;;;;4.43;2.20;;;;;;;20.72;34.96;97718.47;5111483;28;20130;-55
2021/12/10 10:22:16;;;;;;;3.30;1.88;;;;;;;20.71;35.03;97704.97;5110264;27;20050;-53
2021/12/10 10:24:43;;;;;;;2.70;1.58;;;;;;;20.66;35.01;97686.78;5120977;28;20043;-48
2021/12/10 10:27:16;;;;;;;4.40;1.65;;;;;;;20.74;35.03;97698.59;5106969;27;20514;-48
2021/12/10 10:29:52;;;;;;;2.92;1.58;;;;;;;20.73;34.95;97708.13;5121307;28;20039;-50
2021/12/10 10:32:21;;;;;;;5.38;1.38;;;;;;;20.71;35.18;97707.75;5117132;28;20071;-47
2021/12/10 10:34:52;;;;;;;2.60;1.33;;;;;;;20.71;35.16;97702.97;5112283;28;20047;-47
2021/12/10 10:37:18;;;;;;;10.40;1.40;;;;;;;20.66;35.62;97697.91;5094061;28;20049;-48
2021/12/10 10:39:44;;;;;;;5.93;1.20;;;;;;;20.66;35.70;97699.88;5114135;28;20836;-53
2021/12/10 10:42:14;;;;;;;6.57;1.23;;;;;;;20.67;35.60;97696.69;5119882;28;20063;-50
2021/12/10 10:44:41;;;;;;;5.18;1.27;;;;;;;20.67;35.63;97699.47;5114700;27;20043;-48
2021/12/10 10:47:07;;;;;;;2.70;1.30;;;;;;;20.65;35.62;97715.00;5111998;28;20039;-52
2021/12/10 10:49:42;;;;;;;6.88;1.48;;;;;;;20.63;35.60;97693.16;5109239;28;20043;-50
2021/12/10 10:52:28;;;;;;;5.40;1.20;;;;;;;20.61;35.61;97701.13;5117443;27;20141;-48
2021/12/10 10:54:58;;;;;;;3.35;1.40;;;;;;;20.61;35.64;97692.78;5100503;28;20120;-48
2021/12/10 10:57:29;;;;;;;7.07;1.13;;;;;;;20.65;35.68;97690.78;5119281;28;20507;-48
2021/12/10 10:59:59;;;;;;;7.88;1.55;;;;;;;20.66;35.58;97689.56;5112829;28;20067;-49
2021/12/10 11:02:37;;;;;;;6.90;1.50;;;;;;;20.72;35.22;97699.03;5125229;28;20134;-54
2021/12/10 11:05:11;;;;;;;2.95;1.30;;;;;;;20.78;35.44;97705.66;5109345;28;20066;-55
2021/12/10 11:07:47;;;;;;;2.88;1.30;;;;;;;20.80;35.46;97691.38;5110374;27;20561;-54
2021/12/10 11:10:14;;;;;;;7.53;1.60;;;;;;;20.78;35.24;97689.00;5118344;28;20054;-55
2021/12/10 11:12:41;;;;;;;3.47;1.45;;;;;;;20.76;35.25;97691.41;5108501;28;20130;-46
2021/12/10 11:15:17;;;;;;;3.72;1.00;;;;;;;20.74;35.50;97693.81;5110601;27;20039;-47
2021/12/10 11:17:54;;;;;;;4.30;1.00;;;;;;;20.70;35.41;97706.97;5111458;28;20097;-48
2021/12/10 11:20:28;;;;;;;2.78;1.10;;;;;;;20.67;35.56;97716.13;5114895;28;20595;-47
2021/12/10 11:22:59;;;;;;;2.67;1.15;;;;;;;20.65;35.37;97717.75;5110850;28;20056;-47
2021/12/10 11:25:48;;;;;;;2.05;1.10;;;;;;;20.65;35.52;97728.88;5128715;27;20042;-50
2021/12/10 11:28:18;;;;;;;1.70;0.90;;;;;;;20.64;35.64;97716.16;5117938;28;20054;-52
2021/12/10 11:30:52;;;;;;;1.85;1.05;;;;;;;20.61;35.61;97724.13;5111542;28;20039;-47
2021/12/10 11:33:21;;;;;;;1.85;0.93;;;;;;;20.60;35.50;97716.22;5108817;28;20255;-49
2021/12/10 11:35:56;;;;;;;2.13;1.08;;;;;;;20.59;35.66;97714.66;5116011;27;20671;-45
2021/12/10 11:38:29;;;;;;;1.38;0.90;;;;;;;20.57;35.65;97706.72;5106412;27;20751;-45
2021/12/10 11:41:15;;;;;;;1.48;0.90;;;;;;;20.60;35.73;97711.44;5109007;28;20415;-44
2021/12/10 11:43:55;;;;;;;1.83;1.05;;;;;;;20.61;35.60;97715.78;5122056;28;20454;-45
2021/12/10 11:46:47;;;;;;;1.55;0.93;;;;;;;20.67;35.27;97705.03;5128537;28;20545;-44
2021/12/10 11:49:28;;;;;;;2.03;1.05;;;;;;;20.75;35.30;97697.38;5114418;28;20043;-45
2021/12/10 11:52:07;;;;;;;2.42;0.90;;;;;;;20.83;34.92;97716.31;5119270;28;20118;-46